Time;durP1;ratioP1;P1;durP2;ratioP2;P2;SDS_P1;SDS_P2;PMS_P1;PMS_P2;Temp;Humidity;BMP_temperature;BMP_pressure;BME280_temperature;BME280_humidity;BME280_pressure;Samples;Min_cycle;Max_cycle;Signal;HPM_P1;HPM_P2
2021/09/08 00:01:38;;;;;;;;;;;;;;;17.82;100.00;99272.50;5038689;28;19931;-82
2021/09/08 00:04:05;;;;;;;;;;;;;;;17.25;100.00;99284.50;5038207;28;19925;-82
2021/09/08 00:06:33;;;;;;;;;;;;;;;17.69;100.00;99277.50;5031320;28;20008;-82
2021/09/08 00:09:00;;;;;;;;;;;;;;;17.37;100.00;99275.94;5015479;28;19970;-82
2021/09/08 00:11:27;;;;;;;;;;;;;;;17.72;100.00;99274.53;5055887;28;19971;-82
2021/09/08 00:13:54;;;;;;;;;;;;;;;17.64;100.00;99272.47;5038193;28;20546;-81
2021/09/08 00:16:22;;;;;;;;;;;;;;;17.83;100.00;99262.78;5042551;28;19931;-82
2021/09/08 00:18:49;;;;;;;;;;;;;;;17.94;100.00;99268.78;5047897;28;19929;-82
2021/09/08 00:21:16;;;;;;;;;;;;;;;17.85;100.00;99271.56;5055673;28;19925;-81
2021/09/08 00:23:43;;;;;;;;;;;;;;;17.89;100.00;99260.91;5055678;28;19978;-82
2021/09/08 00:26:11;;;;;;;;;;;;;;;17.61;100.00;99268.53;5055995;28;20307;-82
2021/09/08 00:28:38;;;;;;;;;;;;;;;17.53;100.00;99260.81;5060818;28;19925;-82
2021/09/08 00:31:05;;;;;;;;;;;;;;;17.70;100.00;99259.28;5075779;28;19958;-82
2021/09/08 00:33:33;;;;;;;;;;;;;;;17.78;100.00;99261.34;5091520;28;19929;-82
2021/09/08 00:36:00;;;;;;;;;;;;;;;17.77;100.00;99256.97;5091356;28;19925;-81
2021/09/08 00:38:30;;;;;;;;;;;;;;;17.77;100.00;99253.34;5074938;28;19924;-82
2021/09/08 00:40:58;;;;;;;;;;;;;;;17.82;100.00;99245.03;5037979;28;19931;-82
2021/09/08 00:43:25;;;;;;;;;;;;;;;17.45;100.00;99248.22;5083878;28;20007;-82
2021/09/08 00:45:55;;;;;;;;;;;;;;;17.70;100.00;99256.47;5074427;28;19990;-82
2021/09/08 00:48:23;;;;;;;;;;;;;;;17.66;100.00;99253.00;5074565;28;19985;-82
2021/09/08 00:50:50;;;;;;;;;;;;;;;17.69;100.00;99235.13;5057227;28;19924;-82
2021/09/08 00:53:19;;;;;;;;;;;;;;;17.52;100.00;99242.28;5075310;28;19929;-82
2021/09/08 00:55:49;;;;;;;;;;;;;;;17.67;100.00;99246.09;5073791;28;19925;-82
2021/09/08 00:58:16;;;;;;;;;;;;;;;17.55;100.00;99238.53;5075350;28;19924;-82
2021/09/08 01:00:46;;;;;;;;;;;;;;;16.96;100.00;99242.50;5074343;28;19928;-81
2021/09/08 01:03:14;;;;;;;;;;;;;;;17.38;100.00;99237.97;5074021;28;19925;-81
2021/09/08 01:05:44;;;;;;;;;;;;;;;17.16;100.00;99225.19;5073744;28;19924;-81
2021/09/08 01:08:11;;;;;;;;;;;;;;;17.19;100.00;99227.84;5057239;28;19924;-81
2021/09/08 01:10:44;;;;;;;;;;;;;;;17.27;100.00;99226.31;5074747;28;20447;-81
2021/09/08 01:13:11;;;;;;;;;;;;;;;17.06;100.00;99232.03;5075314;28;20318;-81
2021/09/08 01:15:38;;;;;;;;;;;;;;;17.15;100.00;99230.03;5073655;28;20007;-81
2021/09/08 01:18:05;;;;;;;;;;;;;;;17.27;100.00;99217.06;5074072;28;20330;-81
2021/09/08 01:20:32;;;;;;;;;;;;;;;17.13;100.00;99215.59;5073532;28;20297;-81
2021/09/08 01:23:01;;;;;;;;;;;;;;;17.00;100.00;99212.09;5062171;28;19924;-81
2021/09/08 01:25:28;;;;;;;;;;;;;;;17.06;100.00;99220.72;5072468;28;20019;-81
2021/09/08 01:27:56;;;;;;;;;;;;;;;16.87;100.00;99225.50;5074540;28;20359;-81
2021/09/08 01:30:24;;;;;;;;;;;;;;;16.91;100.00;99216.88;5009831;28;20277;-81
2021/09/08 01:32:52;;;;;;;;;;;;;;;16.85;100.00;99216.72;5017267;28;19925;-81
2021/09/08 01:35:20;;;;;;;;;;;;;;;16.94;100.00;99224.44;5033285;28;20314;-81
2021/09/08 01:37:48;;;;;;;;;;;;;;;16.38;100.00;99220.91;5036801;28;19928;-81
2021/09/08 01:40:16;;;;;;;;;;;;;;;16.65;100.00;99219.09;5036698;28;19925;-81
2021/09/08 01:42:44;;;;;;;;;;;;;;;16.83;100.00;99221.22;5036530;28;20434;-82
2021/09/08 01:45:12;;;;;;;;;;;;;;;16.90;100.00;99218.94;5036909;28;19931;-81
2021/09/08 01:47:40;;;;;;;;;;;;;;;16.56;100.00;99216.22;5053366;28;19924;-81
2021/09/08 01:50:08;;;;;;;;;;;;;;;16.67;100.00;99215.81;5054020;28;19925;-81
2021/09/08 01:52:37;;;;;;;;;;;;;;;16.72;100.00;99213.16;5057841;28;19931;-81
2021/09/08 01:55:05;;;;;;;;;;;;;;;16.57;100.00;99205.72;5063615;28;19929;-81
2021/09/08 01:57:33;;;;;;;;;;;;;;;16.76;100.00;99216.66;5057481;28;19928;-81
2021/09/08 02:00:01;;;;;;;;;;;;;;;16.77;100.00;99208.97;5047316;28;19932;-81
2021/09/08 02:02:38;;;;;;;;;;;;;;;16.84;100.00;99217.19;5038667;28;20365;-81
2021/09/08 02:05:06;;;;;;;;;;;;;;;16.58;100.00;99208.09;5054150;28;19925;-81
2021/09/08 02:07:33;;;;;;;;;;;;;;;16.78;100.00;99210.56;5054133;28;19924;-81
2021/09/08 02:10:00;;;;;;;;;;;;;;;16.27;100.00;99203.63;5044280;28;19924;-81
2021/09/08 02:12:27;;;;;;;;;;;;;;;16.61;100.00;99201.53;5032894;28;20270;-82
2021/09/08 02:14:54;;;;;;;;;;;;;;;16.72;100.00;99198.31;5049550;28;20587;-81
2021/09/08 02:17:21;;;;;;;;;;;;;;;16.80;100.00;99191.91;5028344;28;19975;-82
2021/09/08 02:19:48;;;;;;;;;;;;;;;16.86;100.00;99187.22;5058165;28;20399;-81
2021/09/08 02:22:15;;;;;;;;;;;;;;;16.79;100.00;99186.72;5070209;28;19924;-81
2021/09/08 02:24:42;;;;;;;;;;;;;;;16.37;100.00;99185.50;5061189;28;19925;-82
2021/09/08 02:27:11;;;;;;;;;;;;;;;16.51;100.00;99190.66;5020973;28;19924;-82
2021/09/08 02:29:38;;;;;;;;;;;;;;;16.70;100.00;99186.69;5072733;28;20410;-82
2021/09/08 02:32:05;;;;;;;;;;;;;;;16.78;100.00;99180.28;5073706;28;20275;-82
2021/09/08 02:34:32;;;;;;;;;;;;;;;16.78;100.00;99176.69;5073948;28;19931;-82
2021/09/08 02:36:59;;;;;;;;;;;;;;;16.75;100.00;99184.03;5073632;28;19924;-82
2021/09/08 02:39:26;;;;;;;;;;;;;;;16.80;100.00;99180.63;5072458;28;19950;-82
2021/09/08 02:41:53;;;;;;;;;;;;;;;16.73;100.00;99180.09;5055874;28;19925;-82
2021/09/08 02:44:20;;;;;;;;;;;;;;;16.67;100.00;99171.47;5072479;28;19931;-82
2021/09/08 02:46:48;;;;;;;;;;;;;;;16.43;100.00;99163.91;5072539;28;20356;-81
2021/09/08 02:49:15;;;;;;;;;;;;;;;16.51;100.00;99173.72;5072848;28;19946;-82
2021/09/08 02:51:42;;;;;;;;;;;;;;;16.44;100.00;99168.34;5076526;28;19947;-82
2021/09/08 02:54:10;;;;;;;;;;;;;;;16.40;100.00;99173.31;5076347;28;19963;-81
2021/09/08 02:56:37;;;;;;;;;;;;;;;16.56;100.00;99171.09;5076436;28;20346;-81
2021/09/08 02:59:04;;;;;;;;;;;;;;;16.23;100.00;99167.88;5076879;28;20288;-82
2021/09/08 03:01:31;;;;;;;;;;;;;;;16.32;100.00;99167.16;5076504;28;19924;-81
2021/09/08 03:03:58;;;;;;;;;;;;;;;16.48;100.00;99163.38;5059684;28;19928;-82
2021/09/08 03:06:25;;;;;;;;;;;;;;;16.47;100.00;99156.13;5062204;28;19950;-82
2021/09/08 03:08:52;;;;;;;;;;;;;;;16.46;100.00;99154.56;5076276;28;19955;-81
2021/09/08 03:11:20;;;;;;;;;;;;;;;16.35;100.00;99154.16;5076375;28;19924;-81
2021/09/08 03:13:47;;;;;;;;;;;;;;;16.42;100.00;99154.66;5077489;28;19924;-81
2021/09/08 03:16:16;;;;;;;;;;;;;;;16.40;100.00;99150.75;5076063;28;19932;-81
2021/09/08 03:18:43;;;;;;;;;;;;;;;16.25;100.00;99148.44;5076051;28;19978;-81
2021/09/08 03:21:10;;;;;;;;;;;;;;;16.33;100.00;99145.38;5076956;28;19951;-81
2021/09/08 03:23:37;;;;;;;;;;;;;;;16.19;100.00;99147.47;5076050;28;19955;-81
2021/09/08 03:26:05;;;;;;;;;;;;;;;16.24;100.00;99135.59;5076130;28;19978;-81
2021/09/08 03:28:32;;;;;;;;;;;;;;;16.27;100.00;99130.31;5075951;28;19931;-81
2021/09/08 03:30:59;;;;;;;;;;;;;;;16.15;100.00;99129.91;5075924;28;19928;-81
2021/09/08 03:33:26;;;;;;;;;;;;;;;15.17;100.00;99130.56;5075915;28;19924;-81
2021/09/08 03:35:53;;;;;;;;;;;;;;;15.79;100.00;99134.47;5075888;28;20015;-81
2021/09/08 03:38:20;;;;;;;;;;;;;;;15.91;100.00;99131.63;5077263;28;20441;-81
2021/09/08 03:40:47;;;;;;;;;;;;;;;15.94;100.00;99136.34;5076961;28;19925;-81
2021/09/08 03:43:14;;;;;;;;;;;;;;;16.00;100.00;99125.25;5103794;28;19929;-81
2021/09/08 03:45:41;;;;;;;;;;;;;;;15.87;100.00;99128.13;5076850;28;19924;-81
2021/09/08 03:48:08;;;;;;;;;;;;;;;15.98;100.00;99128.53;5076642;28;19928;-81
2021/09/08 03:50:36;;;;;;;;;;;;;;;15.97;100.00;99135.41;5045266;28;19924;-81
2021/09/08 03:53:04;;;;;;;;;;;;;;;15.81;100.00;99115.88;5073065;28;19925;-81
2021/09/08 03:55:31;;;;;;;;;;;;;;;15.01;100.00;99116.63;5076567;28;19931;-81
2021/09/08 03:57:58;;;;;;;;;;;;;;;15.62;100.00;99122.59;5075476;28;19924;-81
2021/09/08 04:00:26;;;;;;;;;;;;;;;15.73;100.00;99116.59;5074727;28;19978;-81
2021/09/08 04:02:53;;;;;;;;;;;;;;;15.78;100.00;99116.00;5076435;28;19931;-81
2021/09/08 04:05:21;;;;;;;;;;;;;;;15.30;100.00;99117.25;5074994;28;19967;-81
2021/09/08 04:07:48;;;;;;;;;;;;;;;15.63;100.00;99115.72;5055377;28;19925;-81
2021/09/08 04:10:15;;;;;;;;;;;;;;;15.73;100.00;99108.94;5052503;28;19979;-81
2021/09/08 04:12:42;;;;;;;;;;;;;;;15.47;100.00;99107.44;5065428;28;19924;-81
2021/09/08 04:15:10;;;;;;;;;;;;;;;15.67;100.00;99098.69;5076136;28;19988;-81
2021/09/08 04:17:37;;;;;;;;;;;;;;;15.55;100.00;99103.16;5101418;28;19925;-80
2021/09/08 04:20:04;;;;;;;;;;;;;;;15.31;100.00;99101.94;5069350;28;20022;-81
2021/09/08 04:22:31;;;;;;;;;;;;;;;15.21;100.00;99100.28;5062495;28;19928;-81
2021/09/08 04:24:58;;;;;;;;;;;;;;;15.37;100.00;99096.53;5058353;28;19924;-81
2021/09/08 04:27:27;;;;;;;;;;;;;;;15.40;100.00;99102.06;5074500;28;19928;-81
2021/09/08 04:29:54;;;;;;;;;;;;;;;15.40;100.00;99101.28;5074821;28;19928;-81
2021/09/08 04:32:21;;;;;;;;;;;;;;;14.59;100.00;99108.75;5075843;28;19932;-81
2021/09/08 04:34:48;;;;;;;;;;;;;;;15.03;100.00;99105.72;5074398;28;19974;-81
2021/09/08 04:37:15;;;;;;;;;;;;;;;14.82;100.00;99100.78;5075015;28;19925;-81
2021/09/08 04:39:44;;;;;;;;;;;;;;;14.42;100.00;99106.06;5058006;28;19924;-81
2021/09/08 04:42:11;;;;;;;;;;;;;;;15.03;100.00;99099.28;5108441;28;20022;-81
2021/09/08 04:44:38;;;;;;;;;;;;;;;15.29;100.00;99101.63;5074542;28;19925;-81
2021/09/08 04:47:05;;;;;;;;;;;;;;;15.49;100.00;99099.34;5074555;28;19924;-81
2021/09/08 04:49:32;;;;;;;;;;;;;;;15.47;100.00;99090.56;5107888;28;19924;-81
2021/09/08 04:51:59;;;;;;;;;;;;;;;15.50;100.00;99088.84;5074678;28;19931;-81
2021/09/08 04:54:26;;;;;;;;;;;;;;;15.63;100.00;99081.16;5075749;28;19924;-81
2021/09/08 04:56:53;;;;;;;;;;;;;;;15.63;100.00;99070.66;5075660;28;19924;-81
2021/09/08 04:59:20;;;;;;;;;;;;;;;15.43;100.00;99084.28;5075180;28;19924;-81
2021/09/08 05:01:47;;;;;;;;;;;;;;;15.63;100.00;99081.91;5057397;28;19947;-81
2021/09/08 05:04:14;;;;;;;;;;;;;;;15.47;100.00;99076.47;5074203;28;20015;-81
2021/09/08 05:06:41;;;;;;;;;;;;;;;15.01;100.00;99073.66;5075105;28;20367;-81
2021/09/08 05:09:08;;;;;;;;;;;;;;;14.88;100.00;99082.09;5041170;28;19932;-81
2021/09/08 05:11:35;;;;;;;;;;;;;;;15.07;100.00;99077.47;5073389;28;19925;-81
2021/09/08 05:14:02;;;;;;;;;;;;;;;15.43;100.00;99070.19;5073704;28;19925;-81
2021/09/08 05:16:29;;;;;;;;;;;;;;;15.19;100.00;99073.84;5075129;28;19924;-81
2021/09/08 05:18:56;;;;;;;;;;;;;;;15.19;100.00;99074.59;5053694;28;19925;-81
2021/09/08 05:21:23;;;;;;;;;;;;;;;15.23;100.00;99063.22;5067900;28;19925;-81
2021/09/08 05:23:51;;;;;;;;;;;;;;;15.41;100.00;99055.78;5060155;28;19931;-81
2021/09/08 05:26:18;;;;;;;;;;;;;;;15.45;100.00;99059.25;5107493;28;20449;-81
2021/09/08 05:28:45;;;;;;;;;;;;;;;15.37;100.00;99057.91;5056855;28;19974;-81
2021/09/08 05:31:12;;;;;;;;;;;;;;;15.43;100.00;99055.31;5073527;28;19924;-81
2021/09/08 05:33:39;;;;;;;;;;;;;;;15.48;100.00;99061.13;5074857;28;19985;-81
2021/09/08 05:36:07;;;;;;;;;;;;;;;15.12;100.00;99057.16;5075119;28;19924;-81
2021/09/08 05:38:34;;;;;;;;;;;;;;;15.12;100.00;99063.59;5073439;28;19928;-81
2021/09/08 05:41:05;;;;;;;;;;;;;;;15.27;100.00;99061.88;5073346;28;19985;-81
2021/09/08 05:43:32;;;;;;;;;;;;;;;15.41;100.00;99064.22;5074019;28;19947;-81
2021/09/08 05:45:59;;;;;;;;;;;;;;;15.42;100.00;99054.53;5073102;28;19924;-81
2021/09/08 05:48:26;;;;;;;;;;;;;;;15.32;100.00;99050.03;5074362;28;19924;-81
2021/09/08 05:50:53;;;;;;;;;;;;;;;15.48;100.00;99052.69;5072848;28;20362;-81
2021/09/08 05:53:20;;;;;;;;;;;;;;;15.54;100.00;99056.50;5056696;28;19929;-81
2021/09/08 05:55:48;;;;;;;;;;;;;;;15.67;100.00;99048.78;5074176;28;19931;-81
2021/09/08 05:58:15;;;;;;;;;;;;;;;15.68;100.00;99050.34;5073079;28;19936;-81
2021/09/08 06:00:43;;;;;;;;;;;;;;;15.73;100.00;99051.81;5073965;28;19924;-81
2021/09/08 06:03:10;;;;;;;;;;;;;;;15.75;100.00;99055.72;5074507;28;20291;-81
2021/09/08 06:05:37;;;;;;;;;;;;;;;15.74;100.00;99054.16;5073168;28;19931;-81
2021/09/08 06:08:04;;;;;;;;;;;;;;;15.31;100.00;99042.81;5056560;28;19947;-80
2021/09/08 06:10:31;;;;;;;;;;;;;;;15.22;100.00;99045.53;5074282;28;20264;-81
2021/09/08 06:12:59;;;;;;;;;;;;;;;14.98;100.00;99047.19;5074041;28;19924;-81
2021/09/08 06:15:26;;;;;;;;;;;;;;;15.54;100.00;99050.88;5073233;28;19978;-86
2021/09/08 06:17:53;;;;;;;;;;;;;;;15.68;100.00;99044.72;5069910;28;19924;-80
2021/09/08 06:20:20;;;;;;;;;;;;;;;15.87;100.00;99043.59;5055779;28;19924;-81
2021/09/08 06:22:47;;;;;;;;;;;;;;;15.93;100.00;99038.16;5074222;28;20318;-82
2021/09/08 06:25:14;;;;;;;;;;;;;;;16.05;100.00;99035.25;5072512;28;20613;-81
2021/09/08 06:27:42;;;;;;;;;;;;;;;16.22;100.00;99045.06;5056092;28;20273;-81
2021/09/08 06:30:09;;;;;;;;;;;;;;;16.30;100.00;99042.75;5054271;28;19947;-81
2021/09/08 06:32:36;;;;;;;;;;;;;;;16.04;100.00;99039.31;5072360;28;19948;-81
2021/09/08 06:35:04;;;;;;;;;;;;;;;16.16;100.00;99038.47;5072763;28;19924;-81
2021/09/08 06:37:31;;;;;;;;;;;;;;;15.91;100.00;99047.09;5074133;28;20271;-81
2021/09/08 06:39:58;;;;;;;;;;;;;;;16.10;100.00;99037.47;5065545;28;19932;-81
2021/09/08 06:42:27;;;;;;;;;;;;;;;16.39;100.00;99036.38;5074335;28;19947;-81
2021/09/08 06:44:55;;;;;;;;;;;;;;;16.60;100.00;99036.31;5072602;28;19950;-81
2021/09/08 06:47:23;;;;;;;;;;;;;;;17.23;100.00;99038.53;5081624;28;20384;-88
2021/09/08 06:50:21;;;;;;;;;;;;;;;18.27;100.00;99034.22;5059075;28;20375;-88
2021/09/08 06:52:57;;;;;;;;;;;;;;;20.03;100.00;99020.34;5070686;28;19931;-88
2021/09/08 06:55:25;;;;;;;;;;;;;;;21.47;100.00;99007.09;5055620;28;20030;-89
2021/09/08 06:57:52;;;;;;;;;;;;;;;22.55;100.00;98990.88;5073439;28;19924;-89
2021/09/08 07:00:19;;;;;;;;;;;;;;;23.46;100.00;98991.69;5055380;28;20383;-89
2021/09/08 07:02:47;;;;;;;;;;;;;;;23.72;100.00;98989.47;5072547;28;19947;-90
2021/09/08 07:05:15;;;;;;;;;;;;;;;24.47;100.00;98975.03;5019258;28;20015;-89
2021/09/08 07:07:43;;;;;;;;;;;;;;;25.19;100.00;98966.34;5068575;28;19924;-89
2021/09/08 07:10:11;;;;;;;;;;;;;;;24.98;100.00;98977.31;5092930;28;19933;-91
2021/09/08 07:12:38;;;;;;;;;;;;;;;25.80;100.00;98961.91;5055577;28;20279;-91
2021/09/08 07:15:05;;;;;;;;;;;;;;;26.35;100.00;98975.06;5069862;28;19947;-91
2021/09/08 07:17:33;;;;;;;;;;;;;;;26.71;100.00;98970.09;5054679;28;19925;-91
2021/09/08 07:20:00;;;;;;;;;;;;;;;27.07;100.00;98972.31;5054590;28;20023;-90
2021/09/08 07:22:28;;;;;;;;;;;;;;;27.30;100.00;98961.38;5051993;28;19978;-91
2021/09/08 07:24:56;;;;;;;;;;;;;;;27.74;100.00;98952.19;5045127;28;19928;-89
2021/09/08 07:27:25;;;;;;;;;;;;;;;28.11;100.00;98949.31;5084356;28;19928;-89
2021/09/08 07:29:54;;;;;;;;;;;;;;;28.46;100.00;98940.38;5034628;28;20372;-86
2021/09/08 07:32:28;;;;;;;;;;;;;;;28.80;100.00;98929.84;5027210;28;19926;-85
2021/09/08 07:34:58;;;;;;;;;;;;;;;29.07;100.00;98937.19;5060549;28;19970;-81
2021/09/08 07:37:26;;;;;;;;;;;;;;;29.39;100.00;98929.19;5056186;28;19948;-87
2021/09/08 07:39:57;;;;;;;;;;;;;;;29.25;100.00;98930.53;5055952;28;20019;-85
2021/09/08 07:42:24;;;;;;;;;;;;;;;29.42;100.00;98922.34;5056651;28;19964;-86
2021/09/08 07:44:51;;;;;;;;;;;;;;;29.62;100.00;98930.31;5022465;28;20398;-87
2021/09/08 07:47:18;;;;;;;;;;;;;;;30.01;100.00;98931.47;5022467;28;19936;-80
2021/09/08 07:49:45;;;;;;;;;;;;;;;30.23;100.00;98925.22;5034022;28;19929;-80
2021/09/08 07:52:12;;;;;;;;;;;;;;;30.41;100.00;98918.47;5055843;28;19932;-80
2021/09/08 07:54:39;;;;;;;;;;;;;;;30.38;100.00;98922.47;5018374;28;19992;-79
2021/09/08 07:57:06;;;;;;;;;;;;;;;30.16;100.00;98925.91;5045817;28;19924;-82
2021/09/08 07:59:36;;;;;;;;;;;;;;;30.05;100.00;98931.94;5052501;28;19925;-82
2021/09/08 08:02:03;;;;;;;;;;;;;;;30.15;100.00;98938.75;5029869;28;19971;-82
2021/09/08 08:04:31;;;;;;;;;;;;;;;30.55;100.00;98931.47;5051286;28;19924;-82
2021/09/08 08:06:58;;;;;;;;;;;;;;;30.88;100.00;98927.72;5018470;28;19979;-82
2021/09/08 08:09:25;;;;;;;;;;;;;;;30.94;100.00;98928.34;5049393;28;19924;-82
2021/09/08 08:11:52;;;;;;;;;;;;;;;31.10;100.00;98932.88;5055678;28;19924;-82
2021/09/08 08:14:19;;;;;;;;;;;;;;;31.43;100.00;98926.16;5056123;28;19925;-82
2021/09/08 08:16:46;;;;;;;;;;;;;;;31.39;100.00;98925.75;5041601;28;19928;-80
2021/09/08 08:19:13;;;;;;;;;;;;;;;31.43;100.00;98929.03;5034442;28;19932;-83
2021/09/08 08:21:40;;;;;;;;;;;;;;;31.21;100.00;98929.69;5058924;28;19924;-82
2021/09/08 08:24:11;;;;;;;;;;;;;;;30.41;100.00;98941.53;5065142;28;19956;-80
2021/09/08 08:26:39;;;;;;;;;;;;;;;30.47;100.00;98947.94;5032778;28;19925;-80
2021/09/08 08:29:06;;;;;;;;;;;;;;;30.66;100.00;98942.69;5066157;28;20018;-81
2021/09/08 08:31:34;;;;;;;;;;;;;;;30.43;100.00;98941.75;5073940;28;20029;-79
2021/09/08 08:34:01;;;;;;;;;;;;;;;28.91;100.00;98941.16;5102153;28;19924;-80
2021/09/08 08:36:28;;;;;;;;;;;;;;;29.44;100.00;98948.47;5069515;28;19963;-82
2021/09/08 08:38:55;;;;;;;;;;;;;;;29.66;100.00;98945.13;5080711;28;19931;-83
2021/09/08 08:41:23;;;;;;;;;;;;;;;30.29;100.00;98946.03;5057472;28;19930;-84
2021/09/08 08:43:50;;;;;;;;;;;;;;;29.69;100.00;98944.00;5057319;28;19947;-84
2021/09/08 08:46:17;;;;;;;;;;;;;;;30.73;100.00;98944.91;5075538;28;19937;-83
2021/09/08 08:48:44;;;;;;;;;;;;;;;30.53;100.00;98937.03;5054788;28;19931;-83
2021/09/08 08:51:12;;;;;;;;;;;;;;;30.02;100.00;98936.69;5072482;28;19924;-83
2021/09/08 08:53:39;;;;;;;;;;;;;;;30.54;100.00;98932.81;5052944;28;19925;-83
2021/09/08 08:56:07;;;;;;;;;;;;;;;30.67;100.00;98935.63;5068426;28;19924;-83
2021/09/08 08:58:34;;;;;;;;;;;;;;;30.67;100.00;98926.97;5072801;28;19924;-83
2021/09/08 09:01:18;;;;;;;;;;;;;;;30.54;100.00;98924.16;5072569;28;19939;-83
2021/09/08 09:04:04;;;;;;;;;;;;;;;31.06;100.00;98920.94;5073719;28;20315;-83
2021/09/08 09:06:32;;;;;;;;;;;;;;;29.70;100.00;98908.09;5072421;28;19970;-83
2021/09/08 09:09:06;;;;;;;;;;;;;;;30.44;100.00;98921.03;5073549;28;19929;-83
2021/09/08 09:11:34;;;;;;;;;;;;;;;30.23;100.00;98917.38;5073617;28;19947;-83
2021/09/08 09:14:03;;;;;;;;;;;;;;;29.89;100.00;98924.44;5089402;28;19925;-83
2021/09/08 09:16:30;;;;;;;;;;;;;;;30.00;100.00;98929.94;5052264;28;19929;-83
2021/09/08 09:18:57;;;;;;;;;;;;;;;29.19;100.00;98909.75;5076319;28;20028;-83
2021/09/08 09:21:25;;;;;;;;;;;;;;;28.95;100.00;98909.16;5072026;28;19947;-83
2021/09/08 09:23:55;;;;;;;;;;;;;;;29.54;100.00;98912.13;5073291;28;19924;-83
2021/09/08 09:26:29;;;;;;;;;;;;;;;28.69;100.00;98898.41;5072239;28;19928;-83
2021/09/08 09:29:05;;;;;;;;;;;;;;;28.87;100.00;98911.16;5088823;28;19928;-83
2021/09/08 09:31:32;;;;;;;;;;;;;;;28.88;100.00;98902.00;5072115;28;19928;-83
2021/09/08 09:33:59;;;;;;;;;;;;;;;28.93;100.00;98892.47;5055433;28;19932;-83
2021/09/08 09:36:28;;;;;;;;;;;;;;;28.34;100.00;98887.28;5072130;28;19986;-83
2021/09/08 09:38:55;;;;;;;;;;;;;;;27.88;100.00;98890.69;5071360;28;19924;-83
2021/09/08 09:41:29;;;;;;;;;;;;;;;27.83;100.00;98882.91;5072013;28;19931;-83
2021/09/08 09:43:56;;;;;;;;;;;;;;;27.42;100.00;98877.50;5055299;28;19924;-83
2021/09/08 09:46:25;;;;;;;;;;;;;;;26.95;100.00;98881.22;5073354;28;20379;-83
2021/09/08 09:48:53;;;;;;;;;;;;;;;26.71;100.00;98875.50;5072671;28;19970;-83
2021/09/08 09:51:20;;;;;;;;;;;;;;;26.66;100.00;98876.38;5071564;28;19924;-83
2021/09/08 09:53:47;;;;;;;;;;;;;;;26.64;100.00;98890.44;5071564;28;20024;-83
2021/09/08 09:56:39;;;;;;;;;;;;;;;26.69;100.00;98886.75;5071562;28;19940;-83
2021/09/08 09:59:07;;;;;;;;;;;;;;;26.39;100.00;98883.88;5071307;28;19935;-82
2021/09/08 10:01:34;;;;;;;;;;;;;;;27.14;100.00;98887.78;5071362;28;19924;-83
2021/09/08 10:04:01;;;;;;;;;;;;;;;26.80;100.00;98878.00;5044219;28;19954;-82
2021/09/08 10:06:29;;;;;;;;;;;;;;;26.87;100.00;98860.22;5085143;28;19924;-83
2021/09/08 10:08:56;;;;;;;;;;;;;;;27.02;100.00;98861.31;5072902;28;19928;-83
2021/09/08 10:11:24;;;;;;;;;;;;;;;27.27;100.00;98865.72;5104913;28;20086;-83
2021/09/08 10:13:55;;;;;;;;;;;;;;;27.10;100.00;98870.88;5072721;28;19928;-83
2021/09/08 10:16:23;;;;;;;;;;;;;;;27.12;100.00;98865.38;5072504;28;20315;-83
2021/09/08 10:18:50;;;;;;;;;;;;;;;27.19;100.00;98858.25;5071332;28;19928;-83
2021/09/08 10:21:21;;;;;;;;;;;;;;;27.20;100.00;98854.06;5072589;28;20406;-83
2021/09/08 10:24:07;;;;;;;;;;;;;;;26.93;100.00;98852.34;5071232;28;19981;-82
2021/09/08 10:26:35;;;;;;;;;;;;;;;26.90;100.00;98859.16;5051870;28;19925;-82
2021/09/08 10:29:06;;;;;;;;;;;;;;;26.65;100.00;98854.75;5038079;28;19978;-83
2021/09/08 10:31:36;;;;;;;;;;;;;;;26.61;100.00;98851.38;5087774;28;20383;-83
2021/09/08 10:34:05;;;;;;;;;;;;;;;26.92;100.00;98857.28;5087902;28;19924;-83
2021/09/08 10:36:34;;;;;;;;;;;;;;;26.51;100.00;98845.22;5070812;28;19924;-84
2021/09/08 10:39:09;;;;;;;;;;;;;;;26.57;100.00;98848.03;5075031;28;20342;-81
2021/09/08 10:41:46;;;;;;;;;;;;;;;26.84;100.00;98838.38;5072185;28;19978;-82
2021/09/08 10:44:14;;;;;;;;;;;;;;;27.12;100.00;98847.38;5073110;28;19924;-81
2021/09/08 10:46:48;;;;;;;;;;;;;;;27.52;100.00;98834.88;5052388;28;20360;-80
2021/09/08 10:49:33;;;;;;;;;;;;;;;27.38;100.00;98838.97;5054677;28;19924;-80
2021/09/08 10:52:01;;;;;;;;;;;;;;;27.20;100.00;98839.72;5055229;28;19924;-80
2021/09/08 10:54:28;;;;;;;;;;;;;;;27.65;100.00;98829.16;5072974;28;20026;-81
2021/09/08 10:56:55;;;;;;;;;;;;;;;26.79;100.00;98830.63;5072798;28;20287;-81
2021/09/08 10:59:22;;;;;;;;;;;;;;;27.38;100.00;98827.50;5072126;28;20376;-81
2021/09/08 11:01:53;;;;;;;;;;;;;;;27.32;100.00;98832.53;5072735;28;19959;-81
2021/09/08 11:04:20;;;;;;;;;;;;;;;27.41;100.00;98829.28;5105781;28;20383;-81
2021/09/08 11:06:51;;;;;;;;;;;;;;;27.57;100.00;98831.91;5049649;28;19936;-85
2021/09/08 11:09:21;;;;;;;;;;;;;;;27.69;100.00;98821.78;5072214;28;20027;-83
2021/09/08 11:11:50;;;;;;;;;;;;;;;26.55;100.00;98825.66;5074115;28;20272;-82
2021/09/08 11:14:19;;;;;;;;;;;;;;;27.04;100.00;98826.38;5055994;28;20257;-82
2021/09/08 11:16:46;;;;;;;;;;;;;;;26.72;100.00;98819.75;5076057;28;19932;-83
2021/09/08 11:19:14;;;;;;;;;;;;;;;26.61;100.00;98826.38;5039543;28;19925;-82
2021/09/08 11:21:42;;;;;;;;;;;;;;;26.43;100.00;98822.13;5075142;28;19925;-81
2021/09/08 11:24:12;;;;;;;;;;;;;;;27.12;100.00;98818.72;5077040;28;19963;-81
2021/09/08 11:26:40;;;;;;;;;;;;;;;27.01;100.00;98807.38;5076215;28;19947;-82
2021/09/08 11:29:10;;;;;;;;;;;;;;;26.78;100.00;98800.41;5058910;28;19928;-82
2021/09/08 11:31:45;;;;;;;;;;;;;;;26.82;100.00;98812.34;5076861;28;19931;-82
2021/09/08 11:34:25;;;;;;;;;;;;;;;26.27;100.00;98799.41;5058883;28;19924;-81
2021/09/08 11:36:54;;;;;;;;;;;;;;;26.83;100.00;98820.41;5076971;28;20410;-82
2021/09/08 11:39:22;;;;;;;;;;;;;;;26.70;100.00;98808.06;5059000;28;19925;-82
2021/09/08 11:42:09;;;;;;;;;;;;;;;26.45;100.00;98810.91;5075437;28;19947;-82
2021/09/08 11:44:36;;;;;;;;;;;;;;;26.66;100.00;98804.72;5075708;28;19932;-82
2021/09/08 11:47:14;;;;;;;;;;;;;;;27.31;100.00;98794.47;5092392;28;19924;-83
2021/09/08 11:49:41;;;;;;;;;;;;;;;27.32;100.00;98792.38;5075263;28;20376;-83
2021/09/08 11:52:16;;;;;;;;;;;;;;;27.75;100.00;98778.63;5075253;28;20445;-84
2021/09/08 11:54:47;;;;;;;;;;;;;;;27.57;100.00;98768.75;5108764;28;20371;-83
2021/09/08 11:57:21;;;;;;;;;;;;;;;27.92;100.00;98777.06;5092694;28;19924;-84
2021/09/08 11:59:50;;;;;;;;;;;;;;;27.88;100.00;98773.75;5075179;28;20384;-83
2021/09/08 12:02:17;;;;;;;;;;;;;;;27.46;100.00;98762.44;5075194;28;19928;-83
2021/09/08 12:04:44;;;;;;;;;;;;;;;27.24;100.00;98762.75;5074931;28;19932;-83
2021/09/08 12:07:11;;;;;;;;;;;;;;;27.85;100.00;98765.44;5075317;28;19924;-83
2021/09/08 12:09:45;;;;;;;;;;;;;;;28.08;100.00;98755.88;5075863;28;19929;-84
2021/09/08 12:12:16;;;;;;;;;;;;;;;27.95;100.00;98755.09;5058751;28;20010;-83
2021/09/08 12:14:47;;;;;;;;;;;;;;;27.87;100.00;98745.56;5039116;28;19971;-82
2021/09/08 12:17:19;;;;;;;;;;;;;;;27.86;100.00;98739.06;5088492;28;20315;-81
2021/09/08 12:19:53;;;;;;;;;;;;;;;28.04;100.00;98731.69;5078811;28;19932;-81
2021/09/08 12:22:28;;;;;;;;;;;;;;;27.30;100.00;98734.78;5075791;28;20359;-81
2021/09/08 12:24:59;;;;;;;;;;;;;;;27.41;100.00;98734.59;5074855;28;19924;-81
2021/09/08 12:27:26;;;;;;;;;;;;;;;27.93;100.00;98732.66;5099650;28;19931;-81
2021/09/08 12:29:58;;;;;;;;;;;;;;;28.04;100.00;98743.16;5074760;28;19924;-81
2021/09/08 12:32:45;;;;;;;;;;;;;;;27.82;100.00;98738.56;5071629;28;19947;-79
2021/09/08 12:35:31;;;;;;;;;;;;;;;27.83;100.00;98725.00;5074324;28;19976;-79
2021/09/08 12:37:58;;;;;;;;;;;;;;;27.62;100.00;98724.06;5091490;28;19952;-81
2021/09/08 12:40:25;;;;;;;;;;;;;;;28.06;100.00;98706.84;5094043;28;19939;-83
2021/09/08 12:42:53;;;;;;;;;;;;;;;28.16;100.00;98721.53;5075276;28;19928;-83